createdAt,value
2023-05-04T00:02:06.972Z,-0.40
2023-05-04T00:07:11.008Z,-0.17
2023-05-04T00:12:15.137Z,0.13
2023-05-04T00:17:19.172Z,0.50
2023-05-04T00:22:23.277Z,0.86
2023-05-04T00:27:27.185Z,1.32
2023-05-04T00:32:31.734Z,1.81
2023-05-04T00:37:35.901Z,1.94
2023-05-04T00:42:39.803Z,2.72
2023-05-04T00:47:44.413Z,3.04
2023-05-04T00:52:51.749Z,3.45
2023-05-04T00:57:57.170Z,3.78
2023-05-04T01:03:01.262Z,4.16
2023-05-04T01:08:16.469Z,4.34
2023-05-04T01:13:23.125Z,4.37
2023-05-04T01:18:27.539Z,4.35
2023-05-04T01:23:31.536Z,4.37
2023-05-04T01:28:55.417Z,4.66
2023-05-04T01:33:59.544Z,4.93
2023-05-04T01:39:05.049Z,5.15
2023-05-04T01:44:10.208Z,5.25
2023-05-04T01:49:14.398Z,5.52
2023-05-04T01:54:18.405Z,5.67
2023-05-04T01:59:22.469Z,6.05
2023-05-04T02:04:26.583Z,6.30
2023-05-04T02:09:30.682Z,6.51
2023-05-04T02:14:34.868Z,6.68
2023-05-04T02:19:38.878Z,6.89
2023-05-04T02:24:45.158Z,7.21
2023-05-04T02:29:49.380Z,7.53
2023-05-04T02:34:54.362Z,7.76
2023-05-04T02:39:58.331Z,7.93
2023-05-04T02:45:02.610Z,8.14
2023-05-04T02:50:08.195Z,8.09
2023-05-04T02:55:12.450Z,8.68
2023-05-04T03:00:16.977Z,8.98
2023-05-04T03:05:21.177Z,9.06
2023-05-04T03:10:25.662Z,9.51
2023-05-04T03:15:29.605Z,9.62
2023-05-04T03:20:33.852Z,9.74
2023-05-04T03:25:38.421Z,9.73
2023-05-04T03:30:43.045Z,9.90
2023-05-04T03:35:48.441Z,10.26
2023-05-04T03:40:52.676Z,10.37
2023-05-04T03:45:56.842Z,10.64
2023-05-04T03:51:01.074Z,10.81
2023-05-04T03:56:05.475Z,11.13
2023-05-04T04:01:09.602Z,11.56
2023-05-04T04:06:15.255Z,11.99
2023-05-04T04:11:19.551Z,12.36
2023-05-04T04:16:23.765Z,12.51
2023-05-04T04:21:27.736Z,12.46
2023-05-04T04:26:31.840Z,13.12
2023-05-04T04:31:36.056Z,13.35
2023-05-04T04:36:41.170Z,13.67
2023-05-04T04:41:45.269Z,13.53
2023-05-04T04:46:50.155Z,13.64
2023-05-04T04:51:54.257Z,13.88
2023-05-04T04:56:58.123Z,14.03
2023-05-04T05:02:03.016Z,13.98
2023-05-04T05:07:09.554Z,14.03
2023-05-04T05:12:13.893Z,14.17
2023-05-04T05:17:18.873Z,14.13
2023-05-04T05:22:23.068Z,14.31
2023-05-04T05:27:27.624Z,14.16
2023-05-04T05:32:31.598Z,14.38
2023-05-04T05:37:35.890Z,14.58
2023-05-04T05:42:39.785Z,14.61
2023-05-04T05:47:44.008Z,14.73
2023-05-04T05:52:48.092Z,14.65
2023-05-04T05:57:52.358Z,14.70
2023-05-04T06:02:56.646Z,14.73
2023-05-04T06:08:01.149Z,14.51
2023-05-04T06:13:05.531Z,14.13
2023-05-04T06:18:09.544Z,14.28
2023-05-04T06:23:15.590Z,14.63
2023-05-04T06:28:19.468Z,14.83
2023-05-04T06:33:23.898Z,14.79
2023-05-04T06:38:27.815Z,14.84
2023-05-04T06:43:34.257Z,14.71
2023-05-04T06:48:38.273Z,14.99
2023-05-04T06:53:42.453Z,15.04
2023-05-04T06:58:46.818Z,15.16
2023-05-04T07:03:51.110Z,15.15
2023-05-04T07:08:55.186Z,15.09
2023-05-04T07:14:01.332Z,15.01
2023-05-04T07:19:05.457Z,15.07
2023-05-04T07:24:09.534Z,15.20
2023-05-04T07:29:13.538Z,15.47
2023-05-04T07:34:17.639Z,15.20
2023-05-04T07:39:21.738Z,15.01
2023-05-04T07:44:25.873Z,14.95
2023-05-04T07:49:29.869Z,14.67
2023-05-04T07:54:33.934Z,14.54
2023-05-04T07:59:37.938Z,14.44
2023-05-04T08:04:42.011Z,14.25
2023-05-04T08:09:46.122Z,14.20
2023-05-04T08:14:50.384Z,14.18
2023-05-04T08:19:54.969Z,14.16
2023-05-04T08:24:58.837Z,14.31
2023-05-04T08:30:03.040Z,14.50
2023-05-04T08:35:08.722Z,14.69
2023-05-04T08:40:13.560Z,14.82
2023-05-04T08:45:19.108Z,15.00
2023-05-04T08:50:23.316Z,15.07
2023-05-04T08:55:27.914Z,15.07
2023-05-04T09:00:33.782Z,15.00
2023-05-04T09:05:39.267Z,14.99
2023-05-04T09:10:43.213Z,14.99
2023-05-04T09:16:00.063Z,14.98
2023-05-04T09:21:04.197Z,15.00
2023-05-04T09:26:08.137Z,14.95
2023-05-04T09:31:12.546Z,14.74
2023-05-04T09:36:22.848Z,14.52
2023-05-04T09:41:34.413Z,14.33
2023-05-04T09:46:38.664Z,14.19
2023-05-04T09:51:43.751Z,14.08
2023-05-04T09:56:53.268Z,13.95
2023-05-04T10:02:02.463Z,13.74
2023-05-04T10:07:15.201Z,13.62
2023-05-04T10:12:19.219Z,13.50
2023-05-04T10:17:42.147Z,13.40
2023-05-04T10:22:49.127Z,13.36
2023-05-04T10:28:12.511Z,13.31
2023-05-04T10:33:17.308Z,13.31
2023-05-04T10:38:32.393Z,12.94
2023-05-04T10:43:36.644Z,13.21
2023-05-04T10:48:40.723Z,13.19
2023-05-04T10:53:44.980Z,13.16
2023-05-04T10:58:49.506Z,13.09
2023-05-04T11:03:54.824Z,13.15
2023-05-04T11:09:06.582Z,13.24
2023-05-04T11:14:11.944Z,13.40
2023-05-04T11:19:19.027Z,13.46
2023-05-04T11:24:22.901Z,13.47
2023-05-04T11:29:27.253Z,13.45
2023-05-04T11:34:31.171Z,13.44
2023-05-04T11:39:36.313Z,13.47
2023-05-04T11:44:42.373Z,13.47
2023-05-04T11:49:48.509Z,13.43
2023-05-04T11:54:58.650Z,13.34
2023-05-04T12:00:02.173Z,13.26
2023-05-04T12:05:14.919Z,12.93
2023-05-04T12:10:35.509Z,13.23
2023-05-04T12:15:39.687Z,13.18
2023-05-04T12:20:44.236Z,13.15
2023-05-04T12:26:07.547Z,13.07
2023-05-04T12:31:11.463Z,13.01
2023-05-04T12:36:15.753Z,12.92
2023-05-04T12:41:19.609Z,12.84
2023-05-04T12:46:23.766Z,12.71
2023-05-04T12:51:27.716Z,12.71
2023-05-04T12:56:32.913Z,12.70
2023-05-04T13:01:37.350Z,12.31
2023-05-04T13:06:41.314Z,12.56
2023-05-04T13:11:45.474Z,12.50
2023-05-04T13:16:51.044Z,12.42
2023-05-04T13:21:55.374Z,12.31
2023-05-04T13:26:59.194Z,12.19
2023-05-04T13:32:03.390Z,12.06
2023-05-04T13:37:08.258Z,11.87
2023-05-04T13:42:13.789Z,11.63
2023-05-04T13:47:18.866Z,11.51
2023-05-04T13:52:22.764Z,11.44
2023-05-04T13:57:30.722Z,11.14
2023-05-04T14:02:35.733Z,10.93
2023-05-04T14:07:39.888Z,10.77
2023-05-04T14:12:44.180Z,10.29
2023-05-04T14:17:48.287Z,10.33
2023-05-04T14:22:52.177Z,10.06
2023-05-04T14:27:56.330Z,9.80
2023-05-04T14:33:00.328Z,9.68
2023-05-04T14:38:04.713Z,9.50
2023-05-04T14:43:08.518Z,9.40
2023-05-04T14:48:12.844Z,9.27
2023-05-04T14:53:17.037Z,8.72
2023-05-04T14:58:20.909Z,8.95
2023-05-04T15:03:26.887Z,8.74
2023-05-04T15:08:30.949Z,8.33
2023-05-04T15:13:35.004Z,8.46
2023-05-04T15:18:38.905Z,8.32
2023-05-04T15:23:54.192Z,8.15
2023-05-04T15:29:42.104Z,7.65
2023-05-04T15:41:31.854Z,7.66
2023-05-04T15:47:05.472Z,7.51
2023-05-04T15:52:47.863Z,7.39
2023-05-04T15:58:13.626Z,7.37
2023-05-04T16:04:00.592Z,7.38
2023-05-04T16:15:22.692Z,7.16
2023-05-04T16:21:21.786Z,7.08
2023-05-04T16:27:09.409Z,7.04
2023-05-04T16:32:40.405Z,6.90
2023-05-04T16:38:30.574Z,6.63
2023-05-04T16:43:53.783Z,6.59
2023-05-04T16:49:45.239Z,6.51
2023-05-04T16:55:11.540Z,6.46
2023-05-04T17:00:37.573Z,6.56
2023-05-04T17:12:08.222Z,6.53
2023-05-04T17:17:57.317Z,6.42
2023-05-04T17:23:29.084Z,6.55
2023-05-04T17:28:51.548Z,6.70
2023-05-04T17:34:08.824Z,6.65
2023-05-04T17:45:16.791Z,6.57
2023-05-04T17:50:36.987Z,6.70
2023-05-04T17:55:55.970Z,6.70
2023-05-04T18:01:17.056Z,6.77
2023-05-04T18:06:35.741Z,6.74
2023-05-04T18:11:59.985Z,6.50
2023-05-04T18:22:43.104Z,6.35
2023-05-04T18:28:07.332Z,6.30
2023-05-04T18:33:20.317Z,6.31
2023-05-04T18:38:45.430Z,6.39
2023-05-04T18:43:57.918Z,6.46
2023-05-04T18:49:04.899Z,6.08
2023-05-04T18:54:09.346Z,6.40
2023-05-04T18:59:13.210Z,6.49
2023-05-04T19:04:17.250Z,6.52
2023-05-04T19:09:21.474Z,6.65
2023-05-04T19:14:27.269Z,6.80
2023-05-04T19:19:32.376Z,6.85
2023-05-04T19:24:38.425Z,6.85
2023-05-04T19:29:42.422Z,6.83
2023-05-04T19:34:47.233Z,6.93
2023-05-04T19:39:51.761Z,6.93
2023-05-04T19:44:56.077Z,7.11
2023-05-04T19:50:00.003Z,7.12
2023-05-04T19:55:04.286Z,7.02
2023-05-04T20:00:10.582Z,7.17
2023-05-04T20:05:17.853Z,7.21
2023-05-04T20:10:22.292Z,7.18
2023-05-04T20:15:26.779Z,7.11
2023-05-04T20:20:30.951Z,7.06
2023-05-04T20:25:35.141Z,7.07
2023-05-04T20:30:39.422Z,6.76
2023-05-04T20:35:44.878Z,7.10
2023-05-04T20:40:50.356Z,7.02
2023-05-04T20:45:55.762Z,7.07
2023-05-04T20:51:12.847Z,7.28
2023-05-04T20:56:18.519Z,7.39
2023-05-04T21:01:22.474Z,7.55
2023-05-04T21:06:26.605Z,7.34
2023-05-04T21:11:30.672Z,7.56
2023-05-04T21:16:34.860Z,7.45
2023-05-04T21:21:41.914Z,7.37
2023-05-04T21:26:46.637Z,7.46
2023-05-04T21:31:50.851Z,7.46
2023-05-04T21:36:55.070Z,7.40
2023-05-04T21:41:59.366Z,7.31
2023-05-04T21:47:04.599Z,7.35
2023-05-04T21:52:08.852Z,7.45
2023-05-04T21:57:12.807Z,7.41
2023-05-04T22:02:16.912Z,7.58
2023-05-04T22:07:20.848Z,7.25
2023-05-04T22:12:25.080Z,7.54
2023-05-04T22:17:29.213Z,7.57
2023-05-04T22:22:33.316Z,7.69
2023-05-04T22:27:37.565Z,7.35
2023-05-04T22:32:41.821Z,7.38
2023-05-04T22:37:47.772Z,7.78
2023-05-04T22:42:51.607Z,7.76
2023-05-04T22:47:55.618Z,7.70
2023-05-04T22:52:59.931Z,7.77
2023-05-04T22:58:03.813Z,7.79
2023-05-04T23:03:08.459Z,7.93
2023-05-04T23:08:12.361Z,7.95
2023-05-04T23:13:16.662Z,7.98
2023-05-04T23:18:20.491Z,7.97
2023-05-04T23:23:24.658Z,7.95
2023-05-04T23:28:28.536Z,8.01
2023-05-04T23:33:32.375Z,8.10
2023-05-04T23:38:36.417Z,8.08
2023-05-04T23:43:40.231Z,8.00
2023-05-04T23:48:44.219Z,7.96
2023-05-04T23:53:48.395Z,7.83
2023-05-04T23:58:52.194Z,7.82
